Time;durP1;ratioP1;P1;durP2;ratioP2;P2;SDS_P1;SDS_P2;PMS_P1;PMS_P2;Temp;Humidity;BMP_temperature;BMP_pressure;BME280_temperature;BME280_humidity;BME280_pressure;Samples;Min_cycle;Max_cycle;Signal;HPM_P1;HPM_P2
2021/06/08 00:01:51;;;;;;;37.22;33.45;;;13.00;99.90;;;;;;6266405;22;20016;-57
2021/06/08 00:04:23;;;;;;;37.00;33.08;;;13.00;99.90;;;;;;6269034;22;20015;-55
2021/06/08 00:06:52;;;;;;;35.10;31.40;;;13.00;99.90;;;;;;6279302;22;20027;-55
2021/06/08 00:09:19;;;;;;;35.58;31.77;;;12.90;99.90;;;;;;6267831;22;20078;-57
2021/06/08 00:11:51;;;;;;;38.40;32.97;;;12.90;99.90;;;;;;6268145;22;20022;-57
2021/06/08 00:14:22;;;;;;;36.63;32.63;;;13.00;99.90;;;;;;6267650;22;20026;-56
2021/06/08 00:16:48;;;;;;;38.60;34.33;;;12.90;99.90;;;;;;6267049;22;20027;-57
2021/06/08 00:19:17;;;;;;;39.63;33.70;;;13.00;99.90;;;;;;6267925;22;20089;-56
2021/06/08 00:21:48;;;;;;;43.20;35.55;;;12.90;99.90;;;;;;6267574;22;20022;-57
2021/06/08 00:24:17;;;;;;;39.65;34.70;;;13.00;99.90;;;;;;6266823;22;20020;-57
2021/06/08 00:26:43;;;;;;;50.50;37.08;;;13.00;99.90;;;;;;6267847;22;20027;-57
2021/06/08 00:29:09;;;;;;;42.65;36.55;;;13.00;99.90;;;;;;6266546;22;20066;-56
2021/06/08 00:31:36;;;;;;;39.08;34.75;;;13.00;99.90;;;;;;6267967;22;20015;-57
2021/06/08 00:34:13;;;;;;;41.92;37.30;;;13.00;99.90;;;;;;6267289;22;20020;-55
2021/06/08 00:36:40;;;;;;;39.78;35.00;;;13.00;99.90;;;;;;6268052;22;20019;-57
2021/06/08 00:39:06;;;;;;;40.00;35.83;;;12.90;99.90;;;;;;6267911;22;20030;-56
2021/06/08 00:41:40;;;;;;;39.72;35.42;;;12.90;99.90;;;;;;6240214;22;20073;-56
2021/06/08 00:44:13;;;;;;;40.97;36.25;;;12.90;99.90;;;;;;6268538;22;20016;-57
2021/06/08 00:46:43;;;;;;;37.60;33.60;;;12.90;99.90;;;;;;6267761;22;20026;-58
2021/06/08 00:49:11;;;;;;;42.15;37.05;;;12.90;99.90;;;;;;6266506;22;20548;-57
2021/06/08 00:51:39;;;;;;;41.28;36.75;;;12.90;99.90;;;;;;6266954;22;20020;-58
2021/06/08 00:54:09;;;;;;;37.08;33.42;;;12.90;99.90;;;;;;6267985;22;20383;-58
2021/06/08 00:56:39;;;;;;;41.03;35.97;;;12.90;99.90;;;;;;6268650;22;20702;-57
2021/06/08 00:59:08;;;;;;;36.35;32.45;;;12.90;99.90;;;;;;6267377;22;20452;-57
2021/06/08 01:01:35;;;;;;;34.05;30.45;;;12.90;99.90;;;;;;6268084;22;20375;-55
2021/06/08 01:04:02;;;;;;;37.95;31.75;;;12.90;99.90;;;;;;6241052;22;20294;-57
2021/06/08 01:06:34;;;;;;;35.70;30.73;;;12.90;99.90;;;;;;6267765;22;20023;-57
2021/06/08 01:09:04;;;;;;;;;;;12.90;99.90;;;;;;6269143;22;20102;-59
2021/06/08 01:11:30;;;;;;;41.42;31.55;;;12.80;99.90;;;;;;6271113;22;19926;-57
2021/06/08 01:13:57;;;;;;;34.22;30.63;;;12.80;99.90;;;;;;6278173;22;20019;-59
2021/06/08 01:16:24;;;;;;;39.10;31.67;;;12.80;99.90;;;;;;6266960;22;20020;-54
2021/06/08 01:18:50;;;;;;;38.05;33.53;;;12.90;99.90;;;;;;6268449;22;20024;-55
2021/06/08 01:21:17;;;;;;;40.10;33.15;;;12.90;99.90;;;;;;6268076;22;20039;-54
2021/06/08 06:50:11;;;;;;;52.63;43.60;;;15.50;99.90;;;;;;4524253;27;15061182;-54
2021/06/08 06:52:56;;;;;;;35.40;30.23;;;15.50;99.90;;;;;;5018509;28;20095;-57
2021/06/08 06:55:26;;;;;;;38.97;30.65;;;15.30;99.90;;;;;;5016946;28;20478;-54
2021/06/08 06:57:56;;;;;;;45.05;38.40;;;15.40;99.90;;;;;;5018577;28;20045;-56
2021/06/08 07:00:24;;;;;;;44.17;38.75;;;15.70;99.90;;;;;;5017674;28;20128;-56
2021/06/08 07:02:55;;;;;;;28.38;25.30;;;15.90;99.90;;;;;;5019012;28;20117;-58
2021/06/08 07:05:28;;;;;;;38.92;33.33;;;16.00;99.90;;;;;;5021990;28;20097;-57
2021/06/08 07:07:55;;;;;;;33.75;29.73;;;16.00;99.90;;;;;;5017016;28;20398;-56
2021/06/08 07:10:25;;;;;;;31.33;27.70;;;16.30;99.90;;;;;;5017024;28;20509;-56
2021/06/08 07:12:55;;;;;;;29.45;26.35;;;16.50;99.90;;;;;;5000792;28;20050;-55
2021/06/08 07:15:30;;;;;;;27.55;24.75;;;16.70;99.90;;;;;;5011024;28;20133;-57
2021/06/08 07:17:57;;;;;;;29.25;26.42;;;16.90;99.90;;;;;;5016430;28;20139;-56
2021/06/08 07:20:28;;;;;;;26.63;23.92;;;17.40;99.90;;;;;;5016741;28;20041;-56
2021/06/08 07:23:00;;;;;;;27.08;24.27;;;18.00;99.90;;;;;;5013548;28;20056;-58
2021/06/08 07:25:27;;;;;;;23.88;21.48;;;18.30;99.90;;;;;;5014556;28;20139;-56
2021/06/08 07:27:54;;;;;;;22.08;19.98;;;18.70;99.80;;;;;;5037866;28;20117;-57
2021/06/08 07:30:22;;;;;;;19.13;17.15;;;18.80;98.80;;;;;;5079647;28;20810;-56
2021/06/08 07:33:10;;;;;;;18.88;17.10;;;18.90;98.30;;;;;;5080058;28;20130;-55
2021/06/08 07:35:50;;;;;;;18.77;16.95;;;19.10;94.40;;;;;;5065928;28;20481;-56
2021/06/08 07:38:57;;;;;;;18.50;16.80;;;19.40;94.80;;;;;;5078561;28;20052;-58
2021/06/08 07:41:36;;;;;;;16.83;15.13;;;19.60;92.70;;;;;;5031948;28;20041;-57
2021/06/08 07:44:09;;;;;;;16.20;14.68;;;19.70;96.40;;;;;;5027633;28;20549;-56
2021/06/08 07:46:46;;;;;;;15.57;14.15;;;19.90;95.20;;;;;;5029978;28;20504;-57
2021/06/08 07:49:17;;;;;;;16.45;14.95;;;20.20;94.00;;;;;;5028465;28;20053;-58
2021/06/08 07:51:51;;;;;;;18.25;16.48;;;20.20;93.30;;;;;;5022943;28;20046;-56
2021/06/08 07:54:37;;;;;;;14.25;12.82;;;20.00;92.20;;;;;;5033962;28;20304;-54
2021/06/08 07:57:05;;;;;;;31.50;28.40;;;20.30;92.70;;;;;;5037781;28;20045;-56
2021/06/08 07:59:34;;;;;;;15.43;13.95;;;20.60;90.70;;;;;;5011392;28;20037;-57
2021/06/08 08:02:01;;;;;;;15.60;14.10;;;20.70;87.20;;;;;;5021991;28;20212;-55
2021/06/08 08:04:41;;;;;;;14.55;13.23;;;20.80;87.30;;;;;;5019139;28;20544;-55
2021/06/08 08:07:26;;;;;;;13.93;12.68;;;20.80;87.10;;;;;;5000851;28;20058;-57
2021/06/08 08:09:54;;;;;;;14.35;12.95;;;21.20;86.60;;;;;;5018375;28;20115;-57
2021/06/08 08:12:25;;;;;;;25.52;23.17;;;21.60;87.60;;;;;;5020182;28;20081;-55
2021/06/08 08:14:57;;;;;;;17.50;15.90;;;21.50;85.40;;;;;;5023158;28;20041;-56
2021/06/08 08:17:41;;;;;;;26.10;23.73;;;21.60;82.00;;;;;;5032962;28;20048;-56
2021/06/08 08:20:49;;;;;;;30.20;27.33;;;21.90;82.80;;;;;;5033317;28;20052;-56
2021/06/08 08:23:36;;;;;;;13.30;12.18;;;21.90;74.60;;;;;;5061455;28;20130;-56
2021/06/08 08:26:23;;;;;;;13.75;12.55;;;22.30;80.50;;;;;;5055093;28;20060;-56
2021/06/08 08:28:59;;;;;;;13.18;12.07;;;22.10;78.20;;;;;;5059236;28;20048;-56
2021/06/08 08:31:35;;;;;;;11.65;10.55;;;22.40;77.90;;;;;;5063413;28;20049;-57
2021/06/08 08:34:02;;;;;;;19.20;17.42;;;22.20;76.30;;;;;;5065253;28;20041;-56
2021/06/08 08:36:36;;;;;;;19.40;17.60;;;22.80;76.80;;;;;;5059644;28;20048;-57
2021/06/08 08:39:05;;;;;;;12.60;11.50;;;23.10;74.60;;;;;;5067364;28;20136;-57
2021/06/08 08:41:35;;;;;;;10.95;10.00;;;23.40;71.50;;;;;;5063752;28;20743;-57
2021/06/08 08:44:11;;;;;;;11.07;10.07;;;23.20;69.10;;;;;;5056996;28;20136;-56
2021/06/08 08:47:02;;;;;;;10.48;9.55;;;23.00;71.70;;;;;;5055101;28;20104;-56
2021/06/08 08:49:51;;;;;;;13.70;12.45;;;23.20;73.10;;;;;;5046994;28;20061;-57
2021/06/08 08:52:23;;;;;;;12.77;11.60;;;23.50;71.50;;;;;;5061922;28;20048;-57
2021/06/08 08:54:56;;;;;;;13.10;11.70;;;24.00;70.50;;;;;;5064063;28;20055;-57
2021/06/08 08:57:24;;;;;;;33.00;30.13;;;24.10;70.30;;;;;;5068208;28;20055;-57
2021/06/08 09:00:06;;;;;;;;;;;24.40;68.70;;;;;;5065971;28;20056;-56
2021/06/08 09:02:54;;;;;;;12.80;11.63;;;24.10;59.70;;;;;;5055520;28;19920;-57
2021/06/08 09:05:25;;;;;;;9.00;8.20;;;24.20;62.90;;;;;;5065699;28;20040;-57
2021/06/08 09:07:52;;;;;;;9.48;8.57;;;24.50;63.50;;;;;;5065542;28;20048;-57
2021/06/08 09:10:21;;;;;;;7.88;7.15;;;24.50;64.00;;;;;;5066086;28;20139;-57
2021/06/08 09:12:54;;;;;;;8.68;7.88;;;24.40;63.30;;;;;;5059921;28;20432;-56
2021/06/08 09:15:23;;;;;;;8.18;7.45;;;24.80;64.10;;;;;;5063936;28;20471;-56
2021/06/08 09:17:55;;;;;;;8.25;7.45;;;24.80;61.40;;;;;;5065809;28;20047;-56
2021/06/08 09:20:25;;;;;;;8.73;7.80;;;24.90;62.00;;;;;;5064770;28;20045;-57
2021/06/08 09:23:03;;;;;;;8.57;7.67;;;25.30;60.70;;;;;;5065996;28;20059;-56
2021/06/08 09:25:38;;;;;;;7.00;6.30;;;25.70;61.50;;;;;;5063419;28;20052;-57
2021/06/08 09:28:26;;;;;;;8.90;5.82;;;25.70;60.60;;;;;;5061067;28;20052;-56
2021/06/08 09:30:54;;;;;;;6.45;5.57;;;25.80;58.90;;;;;;5070514;28;20486;-57
2021/06/08 09:33:22;;;;;;;5.88;4.95;;;25.40;56.80;;;;;;5064623;28;20048;-57
2021/06/08 09:35:59;;;;;;;6.07;4.85;;;25.70;57.50;;;;;;5045673;28;20072;-56
2021/06/08 09:38:42;;;;;;;7.53;6.25;;;26.10;57.60;;;;;;5055409;28;20044;-56
2021/06/08 09:41:41;;;;;;;4.78;4.07;;;26.30;53.90;;;;;;5057209;28;20094;-57
2021/06/08 09:44:21;;;;;;;4.60;3.22;;;26.10;53.00;;;;;;5061064;28;20048;-57
2021/06/08 09:46:53;;;;;;;5.40;3.95;;;26.50;52.90;;;;;;5045016;28;20106;-56
2021/06/08 09:49:19;;;;;;;3.85;3.03;;;26.60;52.30;;;;;;5052541;28;20178;-56
2021/06/08 09:51:51;;;;;;;5.03;3.00;;;26.70;51.40;;;;;;5065628;28;20392;-56
2021/06/08 09:54:34;;;;;;;9.68;8.75;;;27.00;49.60;;;;;;5062560;28;20040;-56
2021/06/08 09:57:14;;;;;;;5.28;3.70;;;27.10;49.10;;;;;;5060140;28;20136;-56
2021/06/08 09:59:42;;;;;;;6.78;4.70;;;27.30;48.90;;;;;;5065023;28;20048;-56
2021/06/08 10:02:28;;;;;;;4.00;2.65;;;27.20;48.20;;;;;;5055889;28;20550;-56
2021/06/08 10:05:14;;;;;;;16.42;14.93;;;27.40;45.90;;;;;;5048549;28;20056;-56
2021/06/08 10:07:44;;;;;;;12.93;11.68;;;27.40;46.50;;;;;;5051375;28;20041;-57
2021/06/08 10:10:13;;;;;;;7.70;6.85;;;27.80;46.30;;;;;;5065346;28;20043;-56
2021/06/08 10:13:01;;;;;;;4.40;3.38;;;27.70;46.70;;;;;;5052647;28;20424;-56
2021/06/08 10:15:35;;;;;;;4.53;3.90;;;28.00;45.10;;;;;;5065036;28;20040;-57
2021/06/08 10:18:05;;;;;;;4.68;4.15;;;27.50;45.00;;;;;;5064419;28;20126;-56
2021/06/08 10:20:36;;;;;;;5.15;4.18;;;27.90;46.00;;;;;;5056024;28;20053;-56
2021/06/08 10:23:30;;;;;;;5.55;4.60;;;28.10;45.50;;;;;;5046377;28;20056;-56
2021/06/08 10:26:10;;;;;;;3.58;2.53;;;28.00;43.00;;;;;;5059375;28;20052;-56
2021/06/08 10:28:36;;;;;;;5.00;4.20;;;28.00;42.60;;;;;;5063938;28;20044;-57
2021/06/08 10:31:04;;;;;;;3.95;2.83;;;27.80;43.80;;;;;;5063863;28;20093;-56
2021/06/08 10:33:31;;;;;;;5.95;4.13;;;28.20;44.50;;;;;;5047256;28;20041;-58
2021/06/08 10:35:57;;;;;;;5.50;4.45;;;28.10;45.90;;;;;;5049603;28;20722;-56
2021/06/08 10:38:26;;;;;;;8.95;8.05;;;28.30;44.50;;;;;;5057975;28;20041;-57
2021/06/08 10:40:56;;;;;;;5.93;4.53;;;28.50;43.60;;;;;;5058807;28;20040;-57
2021/06/08 10:43:28;;;;;;;7.40;6.55;;;28.50;44.60;;;;;;5061972;28;20132;-56
2021/06/08 10:45:56;;;;;;;7.65;5.97;;;28.50;46.10;;;;;;5045923;28;20045;-56
2021/06/08 10:48:41;;;;;;;12.38;11.20;;;28.40;45.20;;;;;;5054232;28;20223;-56
2021/06/08 10:51:20;;;;;;;5.10;3.95;;;28.70;44.90;;;;;;5064379;28;20045;-56
2021/06/08 10:53:54;;;;;;;5.70;3.90;;;28.80;45.10;;;;;;5068597;28;20382;-56
2021/06/08 10:56:35;;;;;;;12.65;11.50;;;28.80;41.50;;;;;;5055526;28;20421;-56
2021/06/08 10:59:08;;;;;;;6.97;5.38;;;28.70;42.20;;;;;;5064085;28;20763;-56
2021/06/08 11:01:47;;;;;;;8.38;7.32;;;28.60;42.50;;;;;;5047853;28;20045;-56
2021/06/08 11:04:28;;;;;;;24.48;22.30;;;28.70;42.20;;;;;;5044702;28;20041;-56
2021/06/08 11:06:57;;;;;;;6.85;3.40;;;28.90;42.40;;;;;;5056057;28;20037;-56
2021/06/08 11:09:31;;;;;;;5.57;4.07;;;28.90;41.90;;;;;;5061801;28;20163;-56
2021/06/08 11:12:07;;;;;;;5.43;4.47;;;29.20;42.60;;;;;;5058624;28;20056;-56
2021/06/08 11:17:07;;;;;;;7.22;4.88;;;29.30;42.60;;;;;;5063312;28;20045;-56
2021/06/08 11:19:53;;;;;;;6.10;4.90;;;29.40;42.50;;;;;;5053090;28;20037;-56
2021/06/08 11:22:32;;;;;;;7.00;5.15;;;29.30;43.50;;;;;;5056603;28;20040;-56
2021/06/08 11:25:26;;;;;;;8.07;4.72;;;28.90;41.60;;;;;;5045051;28;20061;-56
2021/06/08 11:28:17;;;;;;;4.75;3.25;;;29.30;43.00;;;;;;5050156;28;20055;-55
2021/06/08 11:30:55;;;;;;;6.03;3.60;;;28.80;42.60;;;;;;5064773;28;20036;-56
2021/06/08 11:33:39;;;;;;;5.57;3.85;;;28.50;42.60;;;;;;5065319;28;20826;-57
2021/06/08 11:36:18;;;;;;;5.35;3.58;;;28.40;44.30;;;;;;5062139;28;20488;-57
2021/06/08 11:38:46;;;;;;;4.78;3.42;;;28.50;44.20;;;;;;5081244;28;20040;-57
2021/06/08 11:41:15;;;;;;;3.75;2.85;;;28.60;44.80;;;;;;5089364;28;20131;-57
2021/06/08 11:43:42;;;;;;;3.70;2.78;;;28.80;43.50;;;;;;5081750;28;20408;-55
2021/06/08 11:46:17;;;;;;;4.10;2.92;;;28.80;41.80;;;;;;5069477;28;20117;-57
2021/06/08 11:48:45;;;;;;;4.50;2.83;;;29.00;41.50;;;;;;5069315;28;20052;-57
2021/06/08 11:51:22;;;;;;;4.55;2.85;;;28.90;41.70;;;;;;5056708;28;20215;-57
2021/06/08 11:54:08;;;;;;;3.83;2.13;;;29.10;39.70;;;;;;5070170;28;20056;-57
2021/06/08 11:56:57;;;;;;;3.67;2.58;;;29.00;42.20;;;;;;5051713;28;20055;-58
2021/06/08 11:59:46;;;;;;;3.28;2.35;;;29.10;39.80;;;;;;5047941;28;20057;-57
2021/06/08 12:02:40;;;;;;;4.32;3.03;;;29.50;42.70;;;;;;5036978;28;20049;-57
2021/06/08 12:05:23;;;;;;;3.92;2.72;;;29.20;38.20;;;;;;5053959;28;20052;-56
2021/06/08 12:07:54;;;;;;;6.90;3.00;;;29.20;40.90;;;;;;5062337;28;20040;-58
2021/06/08 12:10:40;;;;;;;6.22;4.82;;;29.40;40.80;;;;;;5065982;28;20056;-56
2021/06/08 12:13:13;;;;;;;6.65;5.78;;;29.30;39.70;;;;;;5069604;28;20101;-56
2021/06/08 12:15:42;;;;;;;5.88;4.13;;;29.40;41.10;;;;;;5082201;28;20075;-56
2021/06/08 12:18:28;;;;;;;6.80;3.72;;;29.10;41.10;;;;;;5058503;28;20045;-55
2021/06/08 12:20:58;;;;;;;7.47;3.92;;;29.10;41.20;;;;;;5063764;28;20052;-56
2021/06/08 12:23:32;;;;;;;4.45;3.78;;;29.10;39.80;;;;;;5068816;28;20076;-56
2021/06/08 12:26:18;;;;;;;6.00;4.38;;;29.50;39.40;;;;;;5072974;28;20040;-56
2021/06/08 12:29:12;;;;;;;5.25;3.80;;;29.20;40.00;;;;;;5066852;28;20051;-56
2021/06/08 12:32:00;;;;;;;5.70;3.80;;;29.10;41.00;;;;;;5059329;28;20045;-52
2021/06/08 12:34:32;;;;;;;10.25;8.50;;;29.30;40.40;;;;;;5060618;28;20041;-52
2021/06/08 12:36:59;;;;;;;6.88;4.75;;;29.40;40.10;;;;;;5065723;28;20044;-48
2021/06/08 12:39:32;;;;;;;6.10;4.10;;;29.40;40.20;;;;;;5065964;28;20710;-51
2021/06/08 12:42:16;;;;;;;7.15;5.32;;;29.50;41.50;;;;;;5066759;28;20507;-48
2021/06/08 12:44:45;;;;;;;7.07;4.47;;;29.70;40.50;;;;;;5063635;28;20146;-56
2021/06/08 12:47:12;;;;;;;6.33;5.13;;;29.80;41.60;;;;;;5066969;28;20469;-53
2021/06/08 12:49:45;;;;;;;6.10;4.83;;;30.00;40.70;;;;;;5063275;28;20060;-55
2021/06/08 12:52:19;;;;;;;8.43;5.50;;;29.50;38.60;;;;;;5060403;28;20051;-56
2021/06/08 12:54:51;;;;;;;20.88;18.85;;;29.30;38.80;;;;;;5052375;28;20044;-56
2021/06/08 12:57:33;;;;;;;7.53;5.47;;;29.90;38.50;;;;;;5066603;28;20037;-56
2021/06/08 13:00:09;;;;;;;6.30;5.15;;;30.20;39.20;;;;;;5064821;28;20076;-55
2021/06/08 13:02:36;;;;;;;8.43;7.53;;;30.00;39.80;;;;;;5070402;28;20051;-56
2021/06/08 13:05:06;;;;;;;12.38;11.10;;;29.80;39.40;;;;;;5075618;28;20128;-56
2021/06/08 13:07:36;;;;;;;7.15;5.10;;;30.30;37.60;;;;;;5066470;28;20075;-56
2021/06/08 13:10:13;;;;;;;6.20;5.35;;;30.10;38.10;;;;;;5062725;28;20048;-56
2021/06/08 13:12:45;;;;;;;8.73;7.82;;;30.20;40.10;;;;;;5058611;28;20052;-57
2021/06/08 13:15:17;;;;;;;7.72;6.32;;;30.60;38.50;;;;;;5049071;28;20045;-55
2021/06/08 13:17:49;;;;;;;6.82;5.70;;;30.50;37.90;;;;;;5064852;28;20056;-55
2021/06/08 13:20:31;;;;;;;7.65;6.80;;;30.80;37.70;;;;;;5060083;28;20048;-55
2021/06/08 13:22:58;;;;;;;10.68;6.97;;;30.50;37.40;;;;;;5057573;28;20059;-54
2021/06/08 13:25:26;;;;;;;8.02;6.70;;;30.50;38.40;;;;;;5059351;28;20128;-55
2021/06/08 13:27:54;;;;;;;7.88;5.75;;;30.70;38.30;;;;;;5063296;28;20048;-55
2021/06/08 13:30:27;;;;;;;8.77;7.88;;;30.80;38.60;;;;;;5080148;28;20048;-54
2021/06/08 13:33:02;;;;;;;16.00;14.52;;;30.70;38.80;;;;;;5084392;28;20666;-56
2021/06/08 13:35:34;;;;;;;7.47;6.07;;;30.90;37.10;;;;;;5066040;28;20053;-55
2021/06/08 13:38:04;;;;;;;8.10;7.28;;;31.00;36.70;;;;;;5062043;28;20040;-55
2021/06/08 13:40:38;;;;;;;12.55;11.35;;;30.80;37.30;;;;;;5056472;28;20044;-55
2021/06/08 13:43:12;;;;;;;8.10;5.97;;;30.80;36.70;;;;;;5075778;28;20480;-58
2021/06/08 13:45:56;;;;;;;7.10;5.45;;;30.80;37.10;;;;;;5085405;28;20911;-58
2021/06/08 13:48:46;;;;;;;9.23;8.32;;;30.60;38.70;;;;;;5077232;28;20064;-58
2021/06/08 13:51:15;;;;;;;8.35;6.32;;;30.60;38.80;;;;;;5062031;28;20037;-58
2021/06/08 13:54:01;;;;;;;10.77;9.68;;;30.70;38.50;;;;;;5063489;28;20054;-57
2021/06/08 13:56:36;;;;;;;9.93;6.45;;;30.20;38.70;;;;;;5068750;28;20487;-57
2021/06/08 14:01:55;;;;;;;19.05;16.95;;;30.00;39.50;;;;;;5065762;28;20036;-58
2021/06/08 14:04:24;;;;;;;7.82;6.47;;;30.40;38.80;;;;;;5070467;28;20377;-57
2021/06/08 14:06:54;;;;;;;6.60;5.28;;;30.00;39.00;;;;;;5062442;28;20044;-57
2021/06/08 14:09:23;;;;;;;8.00;6.97;;;29.40;39.90;;;;;;5065067;28;20044;-53
2021/06/08 14:11:56;;;;;;;5.63;4.13;;;28.90;40.30;;;;;;5062020;28;20051;-55
2021/06/08 14:14:32;;;;;;;10.77;9.10;;;28.40;41.00;;;;;;5063617;28;20064;-55
2021/06/08 14:17:12;;;;;;;5.10;3.72;;;27.90;42.20;;;;;;5070077;28;20048;-55
2021/06/08 14:19:40;;;;;;;7.25;5.55;;;27.80;41.90;;;;;;5051113;28;20536;-54
2021/06/08 14:22:11;;;;;;;19.05;17.20;;;27.90;41.20;;;;;;5061089;28;20041;-55
2021/06/08 14:24:43;;;;;;;4.85;4.03;;;28.10;41.20;;;;;;5051918;28;20463;-55
2021/06/08 14:27:15;;;;;;;24.20;21.80;;;28.40;41.40;;;;;;5062617;28;20064;-55
2021/06/08 14:29:42;;;;;;;24.80;22.42;;;28.90;39.70;;;;;;5060404;28;20049;-56
2021/06/08 14:32:09;;;;;;;6.28;4.90;;;29.10;40.00;;;;;;5047946;28;20078;-57
2021/06/08 14:34:41;;;;;;;6.10;5.38;;;29.50;39.40;;;;;;5063812;28;20151;-57
2021/06/08 14:37:09;;;;;;;8.77;7.90;;;29.80;39.80;;;;;;5063681;28;20037;-57
2021/06/08 14:39:37;;;;;;;12.87;11.67;;;30.00;40.40;;;;;;5045968;28;20049;-57
2021/06/08 14:42:06;;;;;;;5.05;3.92;;;30.10;39.80;;;;;;5059014;28;20400;-57
2021/06/08 14:44:39;;;;;;;4.88;3.60;;;30.20;38.90;;;;;;5069048;28;20047;-57
2021/06/08 14:47:15;;;;;;;5.40;4.25;;;30.40;39.20;;;;;;5084614;28;20044;-56
2021/06/08 14:49:47;;;;;;;7.35;4.88;;;30.50;40.00;;;;;;5069273;28;20040;-57
2021/06/08 14:52:13;;;;;;;5.40;3.75;;;30.10;39.30;;;;;;5045039;28;20103;-57
2021/06/08 14:54:42;;;;;;;4.75;3.40;;;29.70;38.90;;;;;;5066067;28;20137;-57
2021/06/08 14:57:10;;;;;;;4.38;3.28;;;29.10;40.20;;;;;;5063475;28;20044;-57
2021/06/08 14:59:58;;;;;;;3.50;3.03;;;28.90;40.70;;;;;;5068353;28;20039;-58
2021/06/08 15:02:25;;;;;;;4.40;3.05;;;28.70;41.80;;;;;;5063941;28;20497;-58
2021/06/08 15:04:52;;;;;;;5.97;4.07;;;28.50;42.60;;;;;;5063793;28;21012;-57
2021/06/08 15:07:21;;;;;;;5.45;4.18;;;28.50;42.50;;;;;;5060927;28;20068;-57
2021/06/08 15:09:47;;;;;;;3.05;2.42;;;28.20;41.60;;;;;;5054031;28;20374;-57
2021/06/08 15:12:16;;;;;;;5.55;3.10;;;28.20;42.00;;;;;;5049516;28;20177;-57
2021/06/08 15:14:43;;;;;;;4.93;3.10;;;28.10;42.00;;;;;;5047803;28;20083;-57
2021/06/08 15:17:11;;;;;;;5.43;4.32;;;27.90;42.00;;;;;;5061066;28;20033;-57
2021/06/08 15:19:37;;;;;;;10.70;9.18;;;27.70;42.30;;;;;;5057448;28;20059;-56
2021/06/08 15:22:06;;;;;;;5.15;3.45;;;27.70;41.70;;;;;;5066911;28;20480;-57
2021/06/08 15:24:36;;;;;;;8.85;7.65;;;27.80;41.80;;;;;;5071717;28;20044;-57
2021/06/08 15:27:03;;;;;;;10.93;9.77;;;27.70;42.70;;;;;;5057704;28;20052;-57
2021/06/08 15:29:29;;;;;;;8.05;3.42;;;27.50;43.00;;;;;;5057273;28;20053;-56
2021/06/08 15:31:56;;;;;;;5.85;3.33;;;27.50;42.70;;;;;;5067402;28;20045;-57
2021/06/08 15:34:22;;;;;;;5.72;4.18;;;27.10;42.50;;;;;;5068397;28;20277;-57
2021/06/08 15:36:49;;;;;;;4.38;3.05;;;27.10;43.20;;;;;;5050458;28;20045;-55
2021/06/08 15:39:15;;;;;;;8.27;3.65;;;26.90;43.40;;;;;;5049204;28;20186;-57
2021/06/08 15:41:42;;;;;;;3.50;2.70;;;26.80;43.70;;;;;;5067297;28;20124;-57
2021/06/08 15:44:08;;;;;;;6.00;3.45;;;26.70;43.20;;;;;;5067088;28;20049;-58
2021/06/08 15:46:39;;;;;;;5.43;3.47;;;26.60;44.30;;;;;;5065939;28;20037;-57
2021/06/08 15:49:07;;;;;;;7.47;6.32;;;26.60;45.00;;;;;;5049502;28;20056;-60
2021/06/08 15:51:35;;;;;;;5.05;4.03;;;26.70;45.20;;;;;;5063693;28;20064;-59
2021/06/08 15:54:03;;;;;;;4.80;3.22;;;26.70;45.10;;;;;;5067317;28;20060;-60
2021/06/08 15:56:29;;;;;;;5.13;3.70;;;26.70;45.10;;;;;;5068271;28;20404;-60
2021/06/08 15:58:55;;;;;;;4.18;3.20;;;26.60;44.70;;;;;;5067445;28;20045;-58
2021/06/08 16:01:22;;;;;;;7.82;3.85;;;26.50;44.90;;;;;;5067702;28;20068;-61
2021/06/08 16:03:48;;;;;;;6.50;3.45;;;26.40;45.50;;;;;;5065421;28;20054;-58
2021/06/08 16:06:18;;;;;;;3.63;2.63;;;26.30;45.50;;;;;;5067248;28;20041;-59
2021/06/08 16:08:44;;;;;;;5.43;3.88;;;26.20;45.70;;;;;;5052965;28;20045;-61
2021/06/08 16:11:11;;;;;;;4.75;2.58;;;26.20;45.70;;;;;;5048263;28;20208;-59
2021/06/08 16:13:40;;;;;;;4.15;3.10;;;26.30;46.70;;;;;;5051417;28;20037;-61
2021/06/08 16:16:07;;;;;;;13.30;11.93;;;26.20;47.20;;;;;;5049635;28;20098;-58
2021/06/08 16:18:36;;;;;;;6.43;3.92;;;26.10;47.20;;;;;;5053665;28;20044;-59
2021/06/08 16:21:09;;;;;;;7.15;3.63;;;25.90;46.70;;;;;;5066888;28;20041;-60
2021/06/08 16:23:35;;;;;;;10.32;9.13;;;25.80;47.30;;;;;;5067156;28;20067;-58
2021/06/08 16:26:04;;;;;;;5.32;4.35;;;25.70;47.90;;;;;;5067950;28;20084;-59
2021/06/08 16:28:33;;;;;;;6.47;3.70;;;25.70;48.80;;;;;;5067828;28;20235;-57
2021/06/08 16:31:00;;;;;;;8.95;6.85;;;25.50;47.70;;;;;;5065478;28;20480;-59
2021/06/08 16:33:28;;;;;;;6.15;3.92;;;25.50;48.20;;;;;;5067295;28;20052;-59
2021/06/08 16:35:55;;;;;;;6.18;4.95;;;25.70;48.80;;;;;;5058615;28;20134;-59
2021/06/08 16:38:21;;;;;;;8.77;7.63;;;25.80;48.40;;;;;;5051727;28;20049;-59
2021/06/08 16:40:47;;;;;;;6.30;4.88;;;25.80;47.90;;;;;;5054121;28;20037;-59
2021/06/08 16:43:14;;;;;;;6.40;5.47;;;25.80;49.50;;;;;;5066562;28;20045;-60
2021/06/08 16:45:40;;;;;;;6.38;5.60;;;26.10;49.70;;;;;;5065744;28;20044;-57
2021/06/08 16:48:07;;;;;;;8.35;6.63;;;26.00;49.60;;;;;;5068109;28;20477;-58
2021/06/08 16:50:38;;;;;;;6.47;5.10;;;26.10;49.60;;;;;;5059884;28;20121;-58
2021/06/08 16:53:23;;;;;;;7.88;6.35;;;26.10;49.10;;;;;;5064905;28;20048;-60
2021/06/08 16:55:52;;;;;;;8.13;5.60;;;26.00;48.00;;;;;;5064496;28;20079;-59
2021/06/08 16:58:19;;;;;;;7.00;4.75;;;25.90;49.20;;;;;;5087626;28;20071;-58
2021/06/08 17:00:46;;;;;;;8.70;6.80;;;25.80;49.10;;;;;;5086989;28;20036;-57
2021/06/08 17:03:12;;;;;;;8.57;4.65;;;25.80;48.90;;;;;;5072989;28;20045;-57
2021/06/08 17:05:39;;;;;;;6.43;4.35;;;25.80;49.30;;;;;;5063356;28;20407;-59
2021/06/08 17:08:08;;;;;;;7.95;6.80;;;25.80;48.60;;;;;;5082199;28;20040;-58
2021/06/08 17:10:34;;;;;;;7.32;4.85;;;25.80;48.70;;;;;;5065579;28;20106;-59
2021/06/08 17:13:04;;;;;;;31.90;29.10;;;25.70;48.40;;;;;;5065823;28;20079;-52
2021/06/08 17:15:31;;;;;;;24.70;22.20;;;25.60;48.30;;;;;;5056422;28;20049;-55
2021/06/08 17:17:59;;;;;;;10.82;9.80;;;25.50;49.50;;;;;;5051871;28;20132;-53
2021/06/08 17:20:28;;;;;;;11.40;10.23;;;25.50;50.60;;;;;;5047934;28;20045;-56
2021/06/08 17:22:55;;;;;;;27.77;25.13;;;25.30;51.00;;;;;;5047409;28;20071;-54
2021/06/08 17:25:24;;;;;;;7.53;6.63;;;25.40;50.90;;;;;;5058918;28;20814;-53
2021/06/08 17:27:50;;;;;;;13.18;11.90;;;25.30;51.70;;;;;;5064876;28;20076;-52
2021/06/08 17:30:17;;;;;;;15.60;14.00;;;25.20;52.00;;;;;;5066027;28;20045;-53
2021/06/08 17:32:45;;;;;;;10.65;7.90;;;25.10;52.70;;;;;;5065722;28;20147;-53
2021/06/08 17:35:11;;;;;;;9.20;7.22;;;25.00;53.40;;;;;;5051590;28;20262;-52
2021/06/08 17:37:37;;;;;;;12.95;11.68;;;24.90;54.70;;;;;;5049758;28;20073;-53
2021/06/08 17:40:04;;;;;;;11.73;10.48;;;24.80;56.40;;;;;;5045647;28;20045;-53
2021/06/08 17:42:31;;;;;;;9.30;8.40;;;24.70;56.50;;;;;;5060786;28;20041;-54
2021/06/08 17:44:57;;;;;;;10.38;7.28;;;24.50;56.80;;;;;;5074299;28;20044;-50
2021/06/08 17:47:24;;;;;;;9.52;7.28;;;24.40;57.10;;;;;;5070876;28;20052;-55
2021/06/08 17:49:50;;;;;;;7.07;4.10;;;24.30;57.80;;;;;;5058840;28;20064;-55
2021/06/08 17:52:19;;;;;;;9.57;7.15;;;24.20;57.50;;;;;;5068456;28;20045;-53
2021/06/08 17:54:45;;;;;;;7.70;5.55;;;24.10;57.90;;;;;;5065551;28;20047;-55
2021/06/08 17:57:11;;;;;;;8.75;7.35;;;24.00;57.90;;;;;;5074565;28;20095;-53
2021/06/08 17:59:38;;;;;;;5.65;4.60;;;23.90;57.80;;;;;;5062067;28;20044;-54
2021/06/08 18:02:04;;;;;;;60.70;54.90;;;23.80;58.50;;;;;;5052538;28;20076;-53
2021/06/08 18:04:33;;;;;;;20.85;18.08;;;23.80;59.30;;;;;;5057595;28;20045;-53
2021/06/08 18:07:02;;;;;;;11.50;8.95;;;23.70;59.60;;;;;;5063177;28;20420;-51
2021/06/08 18:09:29;;;;;;;14.00;12.52;;;23.60;59.40;;;;;;5062459;28;20052;-54
2021/06/08 18:11:55;;;;;;;13.82;12.43;;;23.60;59.90;;;;;;5063932;28;20102;-52
2021/06/08 18:14:21;;;;;;;20.67;18.42;;;23.50;60.10;;;;;;5056641;28;20061;-52
2021/06/08 18:16:55;;;;;;;6.60;4.95;;;23.50;60.10;;;;;;5068616;28;20125;-52
2021/06/08 18:19:38;;;;;;;7.68;5.40;;;23.40;60.30;;;;;;5065216;28;20057;-53
2021/06/08 18:22:08;;;;;;;8.55;6.07;;;23.40;61.60;;;;;;5062573;28;20106;-54
2021/06/08 18:24:36;;;;;;;57.35;50.97;;;23.30;60.80;;;;;;5052855;28;20059;-53
2021/06/08 18:27:04;;;;;;;7.60;5.47;;;23.30;60.30;;;;;;5064888;28;20052;-48
2021/06/08 18:29:31;;;;;;;7.20;5.53;;;23.10;60.60;;;;;;5065338;28;20053;-51
2021/06/08 18:31:58;;;;;;;8.73;7.50;;;23.10;61.10;;;;;;5065750;28;20049;-55
2021/06/08 18:34:25;;;;;;;33.45;29.80;;;23.10;61.10;;;;;;5063962;28;20861;-57
2021/06/08 18:36:52;;;;;;;17.25;14.68;;;23.00;61.40;;;;;;5053677;28;20163;-51
2021/06/08 18:39:22;;;;;;;15.50;12.20;;;23.00;61.50;;;;;;5045913;28;20099;-56